sim
Sign-in with your pilot id or email,
or register
Callsign
Passwort

Schedule Details

Flight Number: DLH2229 (1)
Departure: Paris Charles de Gaulle Airport (LFPG) at 10:20
Arrival: Munich Airport (EDDM) at 11:45
Route: Lufthansa Passenger Schedule. Enter filed route here before submitting Pirep.

Weather Information
Getting current METAR information for LFPG 261830Z 29014KT 9999 BKN016 10/07 Q1007 NOSIG
Getting current METAR information for EDDM 261820Z 24020G32KT 9999 -RA OVC023 07/04 Q1001 NOSIG

Schedule Frequency

Route Map